Portada
METAR-TAF:

METAR-TAF

Aeropuertos :

Aeropuerto de Reus

Reus, España

latitud: 41-09N, longitud: 001-10E, altitud: 71 m

Observación

El informe se hizo hace 29 minutos, a las 18:30 UTC
Viento 3 kt del suroeste
Temperatura 19°C
Humedad 83%
Presión 1025 hPa
Visibilidad 10 km o más
Nubes dispersas a una altura de 2000 ft

METAR: LERS 191830Z 22003KT 9999 SCT020 19/16 Q1025

Hora: 20:59 (18:59 UTC)

Pronóstico

El informe se hizo hace 4 horas y 59 minutos, a las 14:00 UTC
Pronóstico válido del 19 a las 15 UTC al 20 a las 15 UTC
Viento 10 kt del sur-suroeste
Visibilidad 10 km o más
Nubes dispersas a una altura de 2000 ft
Evolucionando progresivamente
del 19 a las 23 UTC al 20 a las 01 UTC
Viento 5 kt del oeste
Evolucionando progresivamente
del 20 a las 09 UTC al 20 a las 12 UTC
Viento 10 kt del sur-suroeste

TAF: LERS 191400Z 1915/2015 20010KT 9999 SCT020 TX25/2012Z TN16/2006Z BECMG 1923/2001 27005KT BECMG 2009/2012 20010KT

Observaciones y pronósticos meteorológicos de más de 4000 aeropuertos (mensajes METAR y TAF).

Los puntos amarillos y rojos representan las estaciones disponibles.

Ponga el ratón en el punto deseado para ver el nombre de la estación.

Haga clic para ver las observaciones y los pronósticos meteorológicos.

Para cambiar el mapa : haga clic en los botones verdes con una cruz de color negro para hacer un zoom, en el botón verde con un guión para alejar o en las flechas verdes para mapas adyacentes.


METAR-TAF: